Aérodrome :
LOGIN :

S'inscrire | Disclaimer

   EN    FR    IT 

 










Légende :    VFR   VFR Marginal   IFR   IFR Intensif   IFR Très Intensif
Visi : 
Plafond : 
>= 8 km
>= 3000ft
5 à 8 km
1000 à 3000 ft
1500m à 5 km
500 à 1000 ft
800 à 1500m
200 à 500 ft
< 800m
< 200 ft
Symboles :   Orages  Brouillard  Fortes neiges  Fortes précipitations  Vent > 20 kt
SIGMETs :   Divers  Orages  Givrage  Turbulence  Onde Orograph.  Cendres Volcan.






- Altitude de l'aérodrome : 160 ft
- Code IATA : FMO


EDDG - Münster Osnabrück Int.

DERNIER METAR :
  • 150820Z 24019G30KT 200V260 9999 SCT026 08/04 Q0994 NOSIG

METARs EXPIRÉS :
  • 150750Z 23015G26KT 9999 SCT024 08/04 Q0993 NOSIG
  • 150720Z 23016KT 9999 FEW016 SCT035 08/05 Q0993 NOSIG
  • 150650Z 23015KT 190V250 9999 SCT035 08/04 Q0992 NOSIG
  • 150620Z 22016KT 9999 -RA FEW008 SCT035 08/05 Q0991 RERA NOSIG
  • 150550Z 20013KT 170V240 8000 -RA FEW008 SCT010 BKN020 08/07 Q0991 TEMPO 23020G35KT SHRA BKN012CB

TAF TAF EDDG
Valide du 15 à 06h jusqu'au 16 à 06h UTC


150500Z 1506/1606 17013KT 9999 BKN020
BECMG 1506/1508 23015G25KT
TEMPO 1506/1508 25020G35KT 4000 SHRA BKN014TCU
TEMPO 1508/1512 25020G30KT
BECMG 1515/1518 21012KT



MET'MAP, la Météo Aéronautique d'un coup d'oeil ! - Copyright ORBIFLY Décembre 2007 - Disclaimer

ORBIFLY MET'MAP TEAM :

Programmation & Développement : Alexandra Zaïnal
Sur une idée originale de : Baudouin d'Aumeries
Assistance à la programmation : Marc-Olivier Méhu
Soutien technique & logistique : Manuel Goepfert

Contact : metmap@orbifly.com




SOURCES & CREDITS :

   NOAA